CYDF/YDF METAR and TAF weather

Enter ICAO airport designator
Station Type Date Time Source
CYDF METAR 2022/07/01 00:00 UTC NOAA

CYDF 010000Z 21003KT 200V310 15SM FEW050 SCT100 OVC170 19/13 A2995 RMK SC1AC3AC4 SLP145 DENSITY ALT 600FT


Station Type Date Time Source
CYDF Decoded METAR 2022/07/01 00:00 UTC NOAA

Deer Lake, Nfld., Canada (CYDF) 49-13N 057-24W 22M
Jun 30, 2022 - 08:00 PM EDT / 2022.07.01 0000 UTC
Wind: from the SSW (210 degrees) at 3 MPH (3 KT) (direction variable):0
Visibility: 15 mile(s):0
Sky conditions: overcast
Temperature: 66 F (19 C)
Dew Point: 55 F (13 C)
Relative Humidity: 68%
Pressure (altimeter): 29.95 in. Hg (1014 hPa)
ob: CYDF 010000Z 21003KT 200V310 15SM FEW050 SCT100 OVC170 19/13 A2995 RMK SC1AC3AC4 SLP145 DENSITY ALT 600FT
cycle: 0

Station Type Date Time Source
CYDF TAF 2022/06/30 20:42 UTC NOAA

TAF CYDF 301940Z 3020/0108 VRB03KT P6SM SCT050 OVC090
BECMG 3020/3021 26010KT
FM010000 29006KT P6SM BKN060
BECMG 0101/0103 04005KT
FM010600 VRB03KT P6SM BKN030
TEMPO 0106/0108 FEW008 BKN020
RMK NXT FCST BY 010200Z

Example: see airport list